Aberdeen Gardens, Washington
Current Conditions -  °F | °C
As of 2:40 PM on Wednesday 22 Oct 2014 (Local Time) from KHQM Reporting Station
Moderate Rain Moderate Rain  
Wind Chill: 56°   Ceiling: 1600
Heat Index: 56°   Visibility: 2mi
Dew Point: 56°   Wind: 9mph
Humidity: 100%   Direction: 50°NE
Pressure: 29.62"   Gusts: NA
Location:  47.1445°N, 123.771°W
Report Text: KHQM 222140Z AUTO 05008KT 2SM RA BR BKN016 BKN024 OVC045 13/13 A2962 RMK AO2 P0013 T01330133
Loading
Personal Weather Stations






























Interactive Weather Map
Tropical Storm Tracking
New forecast layout! Learn more

10-Day Weather Forecast

Advertisements
Track Severe Weather on mobile